Time;durP1;ratioP1;P1;durP2;ratioP2;P2;SDS_P1;SDS_P2;PMS_P1;PMS_P2;Temp;Humidity;BMP_temperature;BMP_pressure;BME280_temperature;BME280_humidity;BME280_pressure;Samples;Min_cycle;Max_cycle;Signal;HPM_P1;HPM_P2
2022/01/06 00:02:26;;;;;;;5.43;1.65;;;;;;;;;;4969332;28;20578;-63
2022/01/06 00:04:53;;;;;;;9.13;2.17;;;;;;;;;;4967826;28;20058;-62
2022/01/06 00:07:19;;;;;;;7.53;2.00;;;;;;;;;;4974968;28;20043;-62
2022/01/06 00:09:47;;;;;;;6.60;1.75;;;;;;;;;;4974132;28;20082;-62
2022/01/06 00:12:16;;;;;;;9.20;1.67;;;;;;;;;;4972026;28;20042;-62
2022/01/06 00:15:00;;;;;;;5.38;1.35;;;;;;;;;;4973113;28;20138;-61
2022/01/06 00:17:40;;;;;;;10.20;1.77;;;;;;;;;;4970507;28;20081;-61
2022/01/06 00:23:21;;;;;;;7.25;2.83;;;;;;;;;;4969615;28;20069;-62
2022/01/06 00:25:47;;;;;;;3.42;1.48;;;;;;;;;;4967479;28;20053;-62
2022/01/06 00:28:14;;;;;;;8.48;2.20;;;;;;;;;;4969279;28;20062;-63
2022/01/06 00:30:42;;;;;;;7.10;1.83;;;;;;;;;;4976043;28;20074;-62
2022/01/06 00:33:10;;;;;;;3.50;1.55;;;;;;;;;;4967878;28;20503;-62
2022/01/06 00:35:37;;;;;;;6.88;1.80;;;;;;;;;;4974359;28;20459;-62
2022/01/06 00:38:06;;;;;;;10.77;2.20;;;;;;;;;;4973187;28;20205;-62
2022/01/06 00:40:32;;;;;;;4.88;1.88;;;;;;;;;;4973058;28;20053;-62
2022/01/06 00:42:59;;;;;;;8.10;2.30;;;;;;;;;;4970059;28;20475;-62
2022/01/06 00:45:26;;;;;;;6.20;1.85;;;;;;;;;;4972095;28;20050;-62
2022/01/06 00:47:54;;;;;;;7.10;2.72;;;;;;;;;;4971420;28;20082;-61
2022/01/06 00:50:20;;;;;;;5.72;2.90;;;;;;;;;;4976950;28;20047;-63
2022/01/06 00:52:47;;;;;;;5.18;1.55;;;;;;;;;;4971288;28;20470;-62
2022/01/06 00:55:14;;;;;;;6.43;2.03;;;;;;;;;;4972637;28;20059;-60
2022/01/06 00:57:40;;;;;;;7.82;2.15;;;;;;;;;;4966010;28;20562;-63
2022/01/06 01:00:08;;;;;;;6.30;2.60;;;;;;;;;;4972546;28;20562;-62
2022/01/06 01:02:35;;;;;;;5.82;1.92;;;;;;;;;;4974359;28;20066;-62
2022/01/06 01:05:07;;;;;;;4.15;1.80;;;;;;;;;;4969043;28;20038;-62
2022/01/06 01:07:34;;;;;;;7.25;2.20;;;;;;;;;;4967547;28;20070;-62
2022/01/06 01:10:00;;;;;;;6.20;2.15;;;;;;;;;;4968735;28;20560;-62
2022/01/06 01:12:27;;;;;;;9.88;2.17;;;;;;;;;;4973646;28;20133;-62
2022/01/06 01:14:57;;;;;;;3.70;1.80;;;;;;;;;;4967368;28;20057;-62
2022/01/06 01:17:27;;;;;;;5.60;2.20;;;;;;;;;;4952090;28;20050;-63
2022/01/06 01:19:53;;;;;;;7.38;2.00;;;;;;;;;;4966651;28;20046;-62
2022/01/06 01:22:21;;;;;;;3.80;1.92;;;;;;;;;;4971109;28;20069;-63
2022/01/06 01:24:48;;;;;;;7.63;2.60;;;;;;;;;;4972506;28;20082;-62
2022/01/06 01:27:20;;;;;;;6.82;2.00;;;;;;;;;;4969964;28;20097;-62
2022/01/06 01:29:57;;;;;;;5.60;1.85;;;;;;;;;;4967872;28;20058;-62
2022/01/06 01:32:29;;;;;;;6.80;2.20;;;;;;;;;;4965639;28;20070;-63
2022/01/06 01:35:00;;;;;;;6.05;1.75;;;;;;;;;;4962125;28;20039;-63
2022/01/06 01:37:29;;;;;;;6.05;2.13;;;;;;;;;;4961175;28;20047;-63
2022/01/06 01:39:56;;;;;;;7.93;2.28;;;;;;;;;;4962023;28;20070;-62
2022/01/06 01:42:23;;;;;;;10.57;2.25;;;;;;;;;;4958773;28;20249;-62
2022/01/06 01:44:51;;;;;;;10.55;2.20;;;;;;;;;;4961440;28;20513;-63
2022/01/06 01:47:28;;;;;;;5.57;2.17;;;;;;;;;;4959113;28;20043;-62
2022/01/06 01:49:58;;;;;;;7.55;2.53;;;;;;;;;;4961535;28;20217;-63
2022/01/06 01:52:25;;;;;;;4.88;2.10;;;;;;;;;;4964984;28;20133;-63
2022/01/06 01:54:53;;;;;;;9.00;2.50;;;;;;;;;;4960584;28;20534;-63
2022/01/06 01:57:19;;;;;;;5.03;1.90;;;;;;;;;;4960115;28;20039;-63
2022/01/06 01:59:46;;;;;;;6.60;2.47;;;;;;;;;;4963635;28;20078;-62
2022/01/06 02:02:13;;;;;;;8.15;3.47;;;;;;;;;;4962158;28;20067;-63
2022/01/06 02:04:39;;;;;;;5.35;2.55;;;;;;;;;;4966420;28;20071;-61
2022/01/06 02:07:06;;;;;;;8.02;2.65;;;;;;;;;;4961157;28;20471;-63
2022/01/06 02:09:32;;;;;;;5.20;2.17;;;;;;;;;;4964636;28;20094;-63
2022/01/06 02:12:01;;;;;;;7.03;2.17;;;;;;;;;;4967995;28;20069;-63
2022/01/06 02:14:27;;;;;;;8.15;2.95;;;;;;;;;;4962127;28;20491;-63
2022/01/06 02:16:57;;;;;;;7.85;2.40;;;;;;;;;;4965018;28;20077;-62
2022/01/06 02:19:24;;;;;;;10.80;2.88;;;;;;;;;;4966529;28;20042;-62
2022/01/06 02:21:52;;;;;;;7.18;2.22;;;;;;;;;;4964583;28;20074;-63
2022/01/06 02:24:18;;;;;;;5.78;2.58;;;;;;;;;;4965856;28;20082;-62
2022/01/06 02:26:45;;;;;;;10.63;3.00;;;;;;;;;;4947368;28;20480;-63
2022/01/06 02:29:12;;;;;;;7.28;2.50;;;;;;;;;;4968582;28;20075;-62
2022/01/06 02:31:43;;;;;;;8.35;2.38;;;;;;;;;;4970086;28;20126;-62
2022/01/06 02:34:10;;;;;;;8.00;2.30;;;;;;;;;;4968673;28;20364;-62
2022/01/06 02:36:36;;;;;;;5.97;2.42;;;;;;;;;;4968182;28;20039;-62
2022/01/06 02:39:05;;;;;;;8.15;2.45;;;;;;;;;;4967679;28;20066;-63
2022/01/06 02:41:32;;;;;;;5.80;2.17;;;;;;;;;;4966146;28;20129;-62
2022/01/06 02:44:00;;;;;;;10.02;2.28;;;;;;;;;;4970785;28;20047;-63
2022/01/06 02:46:26;;;;;;;5.40;2.42;;;;;;;;;;4968735;28;20445;-62
2022/01/06 02:48:53;;;;;;;6.93;2.22;;;;;;;;;;4965083;28;20140;-63
2022/01/06 02:51:19;;;;;;;5.03;2.20;;;;;;;;;;4968641;28;20070;-62
2022/01/06 02:53:46;;;;;;;9.00;2.05;;;;;;;;;;4969048;28;20039;-62
2022/01/06 02:56:14;;;;;;;4.97;1.98;;;;;;;;;;4967092;28;20043;-62
2022/01/06 02:58:40;;;;;;;6.32;2.22;;;;;;;;;;4963048;28;20142;-63
2022/01/06 03:01:07;;;;;;;4.95;2.00;;;;;;;;;;4965120;28;20074;-62
2022/01/06 03:03:34;;;;;;;6.95;2.40;;;;;;;;;;4969168;28;20074;-62
2022/01/06 03:06:01;;;;;;;8.18;2.38;;;;;;;;;;4969319;28;20436;-62
2022/01/06 03:08:27;;;;;;;6.38;2.10;;;;;;;;;;4962026;28;20055;-62
2022/01/06 03:10:56;;;;;;;6.30;2.40;;;;;;;;;;4964619;28;20055;-62
2022/01/06 03:13:24;;;;;;;6.90;2.53;;;;;;;;;;4963641;28;20070;-62
2022/01/06 03:15:50;;;;;;;9.02;2.60;;;;;;;;;;4967500;28;20491;-62
2022/01/06 03:18:17;;;;;;;8.13;3.30;;;;;;;;;;4966502;28;20086;-62
2022/01/06 03:20:43;;;;;;;8.05;2.22;;;;;;;;;;4962816;28;20167;-62
2022/01/06 03:23:10;;;;;;;7.80;2.13;;;;;;;;;;4964270;28;20055;-62
2022/01/06 03:25:36;;;;;;;8.48;2.42;;;;;;;;;;4969553;28;20078;-62
2022/01/06 03:28:03;;;;;;;5.40;2.70;;;;;;;;;;4969777;28;20074;-62
2022/01/06 03:30:31;;;;;;;8.13;2.83;;;;;;;;;;4965099;28;20039;-61
2022/01/06 03:32:57;;;;;;;5.32;1.83;;;;;;;;;;4962624;28;20078;-62
2022/01/06 03:35:26;;;;;;;13.32;2.63;;;;;;;;;;4962522;28;20050;-61
2022/01/06 03:37:53;;;;;;;6.53;2.00;;;;;;;;;;4964994;28;20074;-63
2022/01/06 03:40:20;;;;;;;6.13;2.10;;;;;;;;;;4965226;28;20126;-62
2022/01/06 03:42:47;;;;;;;5.47;2.35;;;;;;;;;;4966152;28;20563;-62
2022/01/06 03:45:15;;;;;;;5.90;2.22;;;;;;;;;;4947131;28;20093;-62
2022/01/06 03:47:44;;;;;;;6.53;2.42;;;;;;;;;;4965825;28;20079;-62
2022/01/06 03:50:12;;;;;;;5.45;2.50;;;;;;;;;;4964097;28;20066;-62
2022/01/06 03:52:39;;;;;;;6.63;2.10;;;;;;;;;;4967025;28;20264;-62
2022/01/06 03:55:09;;;;;;;6.57;2.50;;;;;;;;;;4963277;28;20606;-62
2022/01/06 03:57:35;;;;;;;6.63;3.20;;;;;;;;;;4964210;28;20389;-62
2022/01/06 04:00:03;;;;;;;4.53;2.22;;;;;;;;;;4962716;28;20120;-62
2022/01/06 04:02:30;;;;;;;5.75;3.08;;;;;;;;;;4964702;28;20039;-62
2022/01/06 04:04:58;;;;;;;5.80;2.20;;;;;;;;;;4965347;28;20075;-63
2022/01/06 04:07:24;;;;;;;8.43;2.55;;;;;;;;;;4962618;28;20078;-63
2022/01/06 04:09:51;;;;;;;8.07;2.30;;;;;;;;;;4964824;28;20539;-62
2022/01/06 04:12:17;;;;;;;5.85;2.10;;;;;;;;;;4963935;28;20467;-63
2022/01/06 04:14:44;;;;;;;7.28;2.42;;;;;;;;;;4966736;28;20093;-63
2022/01/06 04:17:10;;;;;;;7.20;2.65;;;;;;;;;;4966603;28;20035;-63
2022/01/06 04:19:37;;;;;;;7.72;2.55;;;;;;;;;;4964664;28;20472;-63
2022/01/06 04:22:06;;;;;;;7.03;3.80;;;;;;;;;;4967918;28;20070;-62
2022/01/06 04:24:32;;;;;;;8.18;2.67;;;;;;;;;;4968144;28;20462;-62
2022/01/06 04:26:59;;;;;;;9.65;3.13;;;;;;;;;;4967711;28;20110;-62
2022/01/06 04:29:26;;;;;;;3.47;2.25;;;;;;;;;;4966224;28;20046;-62
2022/01/06 04:31:53;;;;;;;4.93;2.30;;;;;;;;;;4967034;28;20070;-63
2022/01/06 04:34:19;;;;;;;9.27;3.17;;;;;;;;;;4967056;28;20098;-63
2022/01/06 04:36:50;;;;;;;9.13;2.95;;;;;;;;;;4965350;28;20078;-62
2022/01/06 04:39:18;;;;;;;6.65;3.17;;;;;;;;;;4963860;28;20043;-62
2022/01/06 04:41:45;;;;;;;8.23;2.58;;;;;;;;;;4967423;28;20110;-63
2022/01/06 04:44:12;;;;;;;6.65;2.85;;;;;;;;;;4962476;28;20074;-63
2022/01/06 04:46:38;;;;;;;8.57;2.50;;;;;;;;;;4967015;28;20062;-63
2022/01/06 04:49:05;;;;;;;7.82;3.10;;;;;;;;;;4964020;28;20526;-63
2022/01/06 04:51:31;;;;;;;5.13;2.47;;;;;;;;;;4964704;28;20043;-63
2022/01/06 04:53:58;;;;;;;7.45;2.42;;;;;;;;;;4968622;28;20066;-63
2022/01/06 04:56:26;;;;;;;5.03;2.80;;;;;;;;;;4964346;28;20113;-63
2022/01/06 04:58:53;;;;;;;6.55;3.10;;;;;;;;;;4959781;28;20126;-63
2022/01/06 05:01:19;;;;;;;4.90;2.53;;;;;;;;;;4961181;28;20117;-63
2022/01/06 05:03:46;;;;;;;9.25;2.53;;;;;;;;;;4945834;28;20043;-62
2022/01/06 05:06:12;;;;;;;6.60;2.95;;;;;;;;;;4965318;28;20074;-62
2022/01/06 05:08:39;;;;;;;5.10;2.22;;;;;;;;;;4966250;28;20062;-62
2022/01/06 05:11:05;;;;;;;8.10;2.80;;;;;;;;;;4964305;28;20078;-62
2022/01/06 05:13:33;;;;;;;10.40;3.58;;;;;;;;;;4963663;28;20510;-62
2022/01/06 05:16:00;;;;;;;6.90;3.00;;;;;;;;;;4945266;28;20095;-62
2022/01/06 05:18:26;;;;;;;6.80;3.15;;;;;;;;;;4966730;28;20078;-62
2022/01/06 05:20:53;;;;;;;5.03;2.65;;;;;;;;;;4961268;28;20755;-62
2022/01/06 05:23:20;;;;;;;6.70;2.35;;;;;;;;;;4963176;28;20082;-62
2022/01/06 05:25:47;;;;;;;5.55;2.95;;;;;;;;;;4963691;28;20129;-62
2022/01/06 05:28:13;;;;;;;11.40;2.88;;;;;;;;;;4964601;28;20463;-62
2022/01/06 05:30:41;;;;;;;6.07;2.53;;;;;;;;;;4962767;28;20074;-62
2022/01/06 05:33:10;;;;;;;3.85;2.10;;;;;;;;;;4960702;28;20066;-62
2022/01/06 05:35:36;;;;;;;4.03;2.58;;;;;;;;;;4966860;28;20047;-62
2022/01/06 05:38:03;;;;;;;6.63;2.72;;;;;;;;;;4961369;28;20495;-62
2022/01/06 05:40:29;;;;;;;5.88;2.88;;;;;;;;;;4959949;28;20074;-62
2022/01/06 05:42:57;;;;;;;5.68;2.97;;;;;;;;;;4965759;28;20078;-62
2022/01/06 05:45:24;;;;;;;6.90;3.08;;;;;;;;;;4964229;28;20043;-62
2022/01/06 05:47:52;;;;;;;6.10;2.67;;;;;;;;;;4965753;28;20047;-62
2022/01/06 05:50:19;;;;;;;5.05;2.85;;;;;;;;;;4965058;28;20083;-62
2022/01/06 05:52:45;;;;;;;5.55;2.90;;;;;;;;;;4963978;28;20105;-62
2022/01/06 05:55:12;;;;;;;7.30;3.45;;;;;;;;;;4961194;28;20109;-62
2022/01/06 05:57:38;;;;;;;7.30;3.00;;;;;;;;;;4965210;28;20085;-62
2022/01/06 06:00:07;;;;;;;8.13;3.08;;;;;;;;;;4968231;28;20138;-62
2022/01/06 06:02:35;;;;;;;4.07;3.42;;;;;;;;;;4966951;28;20050;-62
2022/01/06 06:05:04;;;;;;;5.03;2.60;;;;;;;;;;4966300;28;20097;-61
2022/01/06 06:07:31;;;;;;;5.05;3.28;;;;;;;;;;4963850;28;20133;-62
2022/01/06 06:09:57;;;;;;;4.07;2.00;;;;;;;;;;4967655;28;20078;-62
2022/01/06 06:12:24;;;;;;;7.63;3.13;;;;;;;;;;4962450;28;20069;-62
2022/01/06 06:14:50;;;;;;;7.50;2.80;;;;;;;;;;4960451;28;20492;-62
2022/01/06 06:17:17;;;;;;;3.22;1.98;;;;;;;;;;4963544;28;20066;-62
2022/01/06 06:19:43;;;;;;;4.65;2.70;;;;;;;;;;4962348;28;20550;-62
2022/01/06 06:22:11;;;;;;;5.97;3.08;;;;;;;;;;4964372;28;20079;-62
2022/01/06 06:24:38;;;;;;;8.00;2.53;;;;;;;;;;4958204;28;20070;-63
2022/01/06 06:27:06;;;;;;;4.50;2.85;;;;;;;;;;4962186;28;20066;-62
2022/01/06 06:29:32;;;;;;;5.13;2.38;;;;;;;;;;4962251;28;20110;-62
2022/01/06 06:31:59;;;;;;;4.35;2.60;;;;;;;;;;4961045;28;20118;-63
2022/01/06 06:34:26;;;;;;;4.78;2.38;;;;;;;;;;4959725;28;20075;-62
2022/01/06 06:36:52;;;;;;;3.55;2.20;;;;;;;;;;4965695;28;20487;-63
2022/01/06 06:39:20;;;;;;;11.98;2.88;;;;;;;;;;4964201;28;20111;-63
2022/01/06 06:41:47;;;;;;;5.53;2.67;;;;;;;;;;4944182;28;20086;-62
2022/01/06 06:44:13;;;;;;;6.07;2.38;;;;;;;;;;4964920;28;20043;-63
2022/01/06 06:46:40;;;;;;;7.20;4.97;;;;;;;;;;4965559;28;20066;-63
2022/01/06 06:49:06;;;;;;;6.43;2.78;;;;;;;;;;4946011;28;20071;-63
2022/01/06 06:51:33;;;;;;;4.53;2.67;;;;;;;;;;4962855;28;20443;-63
2022/01/06 06:53:59;;;;;;;5.45;2.67;;;;;;;;;;4962409;28;20141;-63
2022/01/06 06:56:27;;;;;;;4.05;2.50;;;;;;;;;;4965489;28;20125;-63
2022/01/06 06:58:54;;;;;;;5.68;2.92;;;;;;;;;;4966456;28;20106;-63
2022/01/06 07:01:20;;;;;;;4.32;2.90;;;;;;;;;;4961053;28;20075;-63
2022/01/06 07:03:47;;;;;;;6.40;3.53;;;;;;;;;;4956799;28;20090;-63
2022/01/06 07:06:13;;;;;;;5.03;2.97;;;;;;;;;;4947391;28;20129;-63
2022/01/06 07:08:40;;;;;;;6.28;2.88;;;;;;;;;;4965530;28;20125;-63
2022/01/06 07:11:06;;;;;;;9.15;3.05;;;;;;;;;;4966770;28;20390;-62
2022/01/06 07:13:34;;;;;;;5.85;2.90;;;;;;;;;;4964917;28;20079;-61
2022/01/06 07:16:01;;;;;;;5.75;2.97;;;;;;;;;;4964945;28;20395;-62
2022/01/06 07:18:28;;;;;;;9.13;3.33;;;;;;;;;;4964743;28;20086;-62
2022/01/06 07:20:54;;;;;;;6.20;3.88;;;;;;;;;;4960468;28;20054;-62
2022/01/06 07:23:21;;;;;;;13.95;4.75;;;;;;;;;;4968726;28;20090;-62
2022/01/06 07:25:47;;;;;;;6.90;3.20;;;;;;;;;;4966992;28;20086;-62
2022/01/06 07:28:14;;;;;;;12.15;5.03;;;;;;;;;;4966401;28;20054;-61
2022/01/06 07:30:42;;;;;;;8.25;4.38;;;;;;;;;;4963295;28;20498;-62
2022/01/06 07:33:08;;;;;;;8.10;4.50;;;;;;;;;;4961128;28;20074;-62
2022/01/06 07:35:35;;;;;;;6.53;3.50;;;;;;;;;;4964943;28;20043;-62
2022/01/06 07:38:02;;;;;;;6.82;4.55;;;;;;;;;;4966121;28;20074;-63
2022/01/06 07:40:28;;;;;;;9.10;5.90;;;;;;;;;;4965950;28;20078;-62
2022/01/06 07:42:55;;;;;;;18.55;6.50;;;;;;;;;;4966280;28;20133;-63
2022/01/06 07:45:21;;;;;;;8.45;4.22;;;;;;;;;;4969460;28;20106;-62
2022/01/06 07:48:01;;;;;;;7.18;3.55;;;;;;;;;;4968649;28;20070;-63
2022/01/06 07:50:29;;;;;;;6.97;4.57;;;;;;;;;;4968447;28;20055;-62
2022/01/06 07:52:56;;;;;;;6.85;3.50;;;;;;;;;;4969327;28;20090;-63
2022/01/06 07:55:23;;;;;;;5.32;3.55;;;;;;;;;;4970316;28;20073;-63
2022/01/06 07:57:50;;;;;;;7.82;3.60;;;;;;;;;;4966314;28;20074;-63
2022/01/06 08:00:17;;;;;;;5.95;3.60;;;;;;;;;;4965753;28;20053;-62
2022/01/06 08:02:45;;;;;;;6.60;3.53;;;;;;;;;;4959261;28;20071;-61
2022/01/06 08:05:15;;;;;;;4.68;2.95;;;;;;;;;;4957162;28;20523;-62
2022/01/06 08:07:41;;;;;;;4.82;3.45;;;;;;;;;;4963720;28;20204;-62
2022/01/06 08:10:09;;;;;;;6.32;2.90;;;;;;;;;;4964228;28;20078;-62
2022/01/06 08:12:36;;;;;;;6.40;3.03;;;;;;;;;;4957575;28;20058;-62
2022/01/06 08:15:04;;;;;;;5.85;3.00;;;;;;;;;;4965010;28;20062;-62
2022/01/06 08:17:31;;;;;;;5.00;3.17;;;;;;;;;;4955845;28;20070;-62
2022/01/06 08:19:57;;;;;;;6.50;3.38;;;;;;;;;;4957662;28;20729;-62
2022/01/06 08:22:25;;;;;;;5.32;2.78;;;;;;;;;;4962131;28;20039;-63
2022/01/06 08:24:53;;;;;;;5.05;2.92;;;;;;;;;;4957230;28;20047;-62
2022/01/06 08:27:20;;;;;;;5.13;3.03;;;;;;;;;;4961618;28;20047;-62
2022/01/06 08:29:46;;;;;;;7.43;2.70;;;;;;;;;;4954444;28;20102;-61
2022/01/06 08:32:13;;;;;;;6.85;3.00;;;;;;;;;;4962877;28;20093;-62
2022/01/06 08:34:40;;;;;;;5.57;3.55;;;;;;;;;;4958042;28;20043;-63
2022/01/06 08:37:06;;;;;;;5.50;3.42;;;;;;;;;;4962150;28;20146;-62
2022/01/06 08:39:35;;;;;;;6.90;3.30;;;;;;;;;;4958844;28;20423;-63
2022/01/06 08:42:01;;;;;;;4.10;2.60;;;;;;;;;;4960921;28;20061;-62
2022/01/06 08:44:28;;;;;;;11.10;3.50;;;;;;;;;;4956857;28;20079;-62
2022/01/06 08:46:55;;;;;;;5.40;3.00;;;;;;;;;;4966122;28;20480;-63
2022/01/06 08:49:22;;;;;;;4.97;2.95;;;;;;;;;;4962618;28;20051;-62
2022/01/06 08:51:49;;;;;;;5.63;2.63;;;;;;;;;;4961032;28;20562;-62
2022/01/06 08:54:15;;;;;;;4.97;3.05;;;;;;;;;;4961291;28;20099;-62
2022/01/06 08:56:43;;;;;;;7.80;4.00;;;;;;;;;;4965028;28;20510;-62
2022/01/06 08:59:10;;;;;;;8.38;4.38;;;;;;;;;;4962132;28;20086;-62
2022/01/06 09:01:36;;;;;;;6.20;3.88;;;;;;;;;;4961089;28;20078;-62
2022/01/06 09:04:03;;;;;;;7.45;4.00;;;;;;;;;;4962709;28;21418;-62
2022/01/06 09:06:30;;;;;;;8.02;3.42;;;;;;;;;;4963797;28;20309;-62
2022/01/06 09:08:57;;;;;;;6.28;3.72;;;;;;;;;;4963645;28;20690;-62
2022/01/06 09:11:23;;;;;;;5.88;3.60;;;;;;;;;;4965703;28;20446;-62
2022/01/06 09:13:51;;;;;;;9.07;4.13;;;;;;;;;;4966497;28;20093;-62
2022/01/06 09:16:17;;;;;;;8.45;3.60;;;;;;;;;;4960327;28;20085;-62
2022/01/06 09:18:44;;;;;;;10.05;5.43;;;;;;;;;;4962866;28;20078;-62
2022/01/06 09:21:11;;;;;;;10.02;4.40;;;;;;;;;;4960276;28;20062;-62
2022/01/06 09:23:38;;;;;;;5.85;3.60;;;;;;;;;;4963470;28;20050;-62
2022/01/06 09:26:05;;;;;;;7.63;4.15;;;;;;;;;;4964970;28;20141;-62
2022/01/06 09:28:31;;;;;;;8.32;3.72;;;;;;;;;;4960964;28;20054;-62
2022/01/06 09:31:02;;;;;;;9.02;4.78;;;;;;;;;;4965704;28;20089;-62
2022/01/06 09:33:29;;;;;;;6.40;4.45;;;;;;;;;;4963324;28;20078;-62
2022/01/06 09:35:55;;;;;;;6.88;3.83;;;;;;;;;;4963488;28;20081;-62
2022/01/06 09:38:22;;;;;;;7.15;3.47;;;;;;;;;;4963464;28;20208;-62
2022/01/06 09:40:48;;;;;;;7.22;3.95;;;;;;;;;;4967225;28;20085;-62
2022/01/06 09:43:15;;;;;;;7.68;3.72;;;;;;;;;;4966755;28;20047;-61
2022/01/06 09:45:42;;;;;;;12.05;4.22;;;;;;;;;;4960199;28;20129;-62
2022/01/06 09:48:10;;;;;;;6.40;3.30;;;;;;;;;;4961288;28;20459;-62
2022/01/06 09:50:42;;;;;;;11.88;4.35;;;;;;;;;;4962749;28;20059;-62
2022/01/06 09:53:10;;;;;;;13.20;6.50;;;;;;;;;;4962797;28;20043;-63
2022/01/06 09:55:37;;;;;;;10.27;6.05;;;;;;;;;;4966158;28;20055;-63
2022/01/06 09:58:04;;;;;;;7.60;4.25;;;;;;;;;;4958339;28;20114;-63
2022/01/06 10:00:33;;;;;;;6.60;3.55;;;;;;;;;;4966082;28;20080;-62
2022/01/06 10:03:01;;;;;;;6.05;3.35;;;;;;;;;;4965150;28;20153;-62
2022/01/06 10:05:38;;;;;;;5.25;3.40;;;;;;;;;;4958902;28;20047;-62
2022/01/06 10:08:05;;;;;;;5.43;3.47;;;;;;;;;;4958276;28;20110;-59
2022/01/06 10:10:34;;;;;;;6.78;3.65;;;;;;;;;;4962174;28;20081;-62
2022/01/06 10:13:06;;;;;;;7.25;3.88;;;;;;;;;;4965127;28;20049;-62
2022/01/06 10:15:33;;;;;;;6.00;3.40;;;;;;;;;;4961165;28;20054;-61
2022/01/06 10:18:10;;;;;;;7.10;3.78;;;;;;;;;;4957870;28;20058;-62
2022/01/06 10:20:38;;;;;;;6.95;4.00;;;;;;;;;;4959497;28;20388;-61
2022/01/06 10:23:11;;;;;;;5.95;3.75;;;;;;;;;;4957811;28;20479;-59
2022/01/06 10:25:39;;;;;;;7.78;3.83;;;;;;;;;;4965938;28;20075;-62
2022/01/06 10:28:14;;;;;;;8.27;4.35;;;;;;;;;;4963618;28;20074;-62
2022/01/06 10:30:47;;;;;;;5.22;2.42;;;;;;;;;;4961166;28;20066;-62
2022/01/06 10:33:15;;;;;;;8.18;3.97;;;;;;;;;;4938525;29;20047;-62
2022/01/06 10:35:43;;;;;;;6.93;3.90;;;;;;;;;;4956021;28;20146;-61
2022/01/06 10:38:10;;;;;;;7.70;4.47;;;;;;;;;;4958086;28;20276;-62
2022/01/06 10:40:38;;;;;;;6.88;3.45;;;;;;;;;;4961765;28;20098;-61
2022/01/06 10:43:06;;;;;;;8.98;3.97;;;;;;;;;;4963094;28;20043;-62
2022/01/06 10:45:34;;;;;;;7.43;4.15;;;;;;;;;;4956843;28;20104;-61
2022/01/06 10:48:02;;;;;;;6.80;4.18;;;;;;;;;;4963373;28;20079;-62
2022/01/06 10:50:32;;;;;;;8.50;5.15;;;;;;;;;;4962090;28;20086;-62
2022/01/06 10:53:01;;;;;;;7.70;4.43;;;;;;;;;;4962180;28;20083;-62
2022/01/06 10:55:29;;;;;;;6.80;4.55;;;;;;;;;;4968355;28;20078;-61
2022/01/06 10:57:58;;;;;;;7.50;4.60;;;;;;;;;;4967091;28;20070;-62
2022/01/06 11:00:26;;;;;;;6.38;3.45;;;;;;;;;;4962250;28;20073;-62
2022/01/06 11:02:53;;;;;;;6.38;4.20;;;;;;;;;;4957656;28;20519;-62
2022/01/06 11:05:19;;;;;;;6.75;4.13;;;;;;;;;;4969341;28;20039;-61
2022/01/06 11:07:46;;;;;;;7.72;4.55;;;;;;;;;;4964670;28;20070;-59
2022/01/06 11:10:16;;;;;;;7.50;4.40;;;;;;;;;;4968464;28;20141;-60
2022/01/06 11:12:43;;;;;;;9.25;4.65;;;;;;;;;;4965670;28;20061;-60
2022/01/06 11:15:14;;;;;;;7.60;4.03;;;;;;;;;;4967637;28;20038;-59
2022/01/06 11:17:41;;;;;;;6.38;4.25;;;;;;;;;;4969482;28;20126;-60
2022/01/06 11:20:09;;;;;;;7.20;4.70;;;;;;;;;;4968179;28;20490;-61
2022/01/06 11:22:35;;;;;;;9.00;5.25;;;;;;;;;;4963397;28;20148;-59
2022/01/06 11:25:03;;;;;;;9.77;4.80;;;;;;;;;;4964702;28;20117;-58
2022/01/06 11:27:33;;;;;;;8.38;4.38;;;;;;;;;;4965056;28;20144;-60
2022/01/06 11:30:11;;;;;;;7.45;4.57;;;;;;;;;;4971305;28;20105;-60
2022/01/06 11:32:38;;;;;;;6.72;4.50;;;;;;;;;;4962789;28;20082;-59
2022/01/06 11:35:07;;;;;;;6.85;4.18;;;;;;;;;;4968094;28;20046;-60
2022/01/06 11:37:42;;;;;;;8.02;5.03;;;;;;;;;;4967799;28;20046;-59
2022/01/06 11:40:09;;;;;;;9.48;3.85;;;;;;;;;;4967161;28;20066;-60
2022/01/06 11:42:37;;;;;;;5.95;3.90;;;;;;;;;;4968194;28;20142;-60
2022/01/06 11:45:06;;;;;;;7.45;4.28;;;;;;;;;;4963028;28;20070;-60
2022/01/06 11:47:34;;;;;;;6.80;4.18;;;;;;;;;;4963266;28;20383;-60
2022/01/06 11:50:13;;;;;;;6.07;3.10;;;;;;;;;;4961173;28;20182;-60
2022/01/06 11:52:50;;;;;;;10.70;5.38;;;;;;;;;;4965402;28;20375;-61
2022/01/06 11:55:17;;;;;;;7.20;3.65;;;;;;;;;;4962910;28;20051;-61
2022/01/06 11:57:45;;;;;;;6.60;4.00;;;;;;;;;;4963691;28;20070;-61
2022/01/06 12:00:17;;;;;;;9.55;4.05;;;;;;;;;;4962158;28;20085;-62
2022/01/06 12:02:45;;;;;;;8.82;3.80;;;;;;;;;;4963361;28;20121;-63
2022/01/06 12:05:12;;;;;;;6.93;3.50;;;;;;;;;;4962087;28;20078;-61
2022/01/06 12:07:49;;;;;;;6.95;3.75;;;;;;;;;;4963385;28;20074;-61
2022/01/06 12:10:15;;;;;;;6.60;3.60;;;;;;;;;;4962027;28;20063;-61
2022/01/06 12:12:42;;;;;;;9.15;3.65;;;;;;;;;;4967795;28;20082;-61
2022/01/06 12:15:12;;;;;;;6.47;3.65;;;;;;;;;;4969983;28;20129;-61
2022/01/06 12:17:45;;;;;;;8.88;3.95;;;;;;;;;;4967937;28;20491;-61
2022/01/06 12:20:11;;;;;;;8.30;4.20;;;;;;;;;;4963034;28;20179;-62
2022/01/06 12:22:38;;;;;;;9.05;3.38;;;;;;;;;;4965813;28;20078;-61
2022/01/06 12:25:06;;;;;;;10.27;4.30;;;;;;;;;;4948613;28;20070;-61
2022/01/06 12:27:34;;;;;;;6.13;3.28;;;;;;;;;;4965310;28;20117;-62
2022/01/06 12:30:05;;;;;;;11.88;3.95;;;;;;;;;;4964882;28;20125;-62
2022/01/06 12:32:33;;;;;;;9.13;3.63;;;;;;;;;;4966982;28;20134;-62
2022/01/06 12:34:59;;;;;;;7.00;3.60;;;;;;;;;;4963968;28;20110;-62
2022/01/06 12:37:27;;;;;;;7.75;3.15;;;;;;;;;;4967855;28;20136;-62
2022/01/06 12:39:55;;;;;;;8.00;3.60;;;;;;;;;;4967107;28;20043;-61
2022/01/06 12:42:23;;;;;;;8.75;3.50;;;;;;;;;;4959194;28;20047;-59
2022/01/06 12:44:50;;;;;;;10.10;3.40;;;;;;;;;;4964577;28;20055;-62
2022/01/06 12:47:17;;;;;;;7.65;3.25;;;;;;;;;;4962144;28;20042;-62
2022/01/06 12:49:45;;;;;;;11.43;4.22;;;;;;;;;;4960515;28;20395;-63
2022/01/06 12:52:12;;;;;;;20.70;4.82;;;;;;;;;;4967699;28;20091;-63
2022/01/06 12:54:40;;;;;;;9.73;3.60;;;;;;;;;;4961406;28;20394;-63
2022/01/06 12:57:09;;;;;;;7.13;3.20;;;;;;;;;;4961829;28;20058;-63
2022/01/06 12:59:39;;;;;;;8.80;3.47;;;;;;;;;;4964154;28;20051;-63
2022/01/06 13:02:09;;;;;;;6.43;3.20;;;;;;;;;;4964092;28;20105;-63
2022/01/06 13:04:38;;;;;;;10.00;4.07;;;;;;;;;;4959210;28;20743;-63
2022/01/06 13:07:07;;;;;;;8.75;3.85;;;;;;;;;;4962090;28;20047;-63
2022/01/06 13:09:36;;;;;;;7.70;3.58;;;;;;;;;;4960548;28;20083;-64
2022/01/06 13:12:05;;;;;;;8.35;3.25;;;;;;;;;;4946809;28;20055;-63
2022/01/06 13:14:33;;;;;;;8.02;3.30;;;;;;;;;;4959655;28;20106;-63
2022/01/06 13:17:12;;;;;;;6.65;2.60;;;;;;;;;;4956997;28;20056;-63
2022/01/06 13:19:48;;;;;;;8.77;3.40;;;;;;;;;;4961349;28;20061;-63
2022/01/06 13:22:24;;;;;;;8.55;3.08;;;;;;;;;;4963511;28;20463;-63
2022/01/06 13:24:50;;;;;;;8.88;3.30;;;;;;;;;;4964360;28;20043;-63
2022/01/06 13:27:17;;;;;;;6.95;3.92;;;;;;;;;;4965598;28;20067;-63
2022/01/06 13:29:51;;;;;;;6.50;3.35;;;;;;;;;;4964837;28;20134;-63
2022/01/06 13:32:22;;;;;;;8.68;5.72;;;;;;;;;;4963447;28;20098;-63
2022/01/06 13:35:01;;;;;;;9.35;4.65;;;;;;;;;;4963661;28;20340;-62
2022/01/06 13:37:31;;;;;;;5.63;3.03;;;;;;;;;;4963347;28;20055;-62
2022/01/06 13:40:01;;;;;;;8.95;3.35;;;;;;;;;;4959982;28;20061;-62
2022/01/06 13:42:29;;;;;;;6.85;3.20;;;;;;;;;;4971806;28;20092;-62
2022/01/06 13:45:03;;;;;;;8.55;3.90;;;;;;;;;;4968623;28;20150;-63
2022/01/06 13:47:36;;;;;;;6.05;2.90;;;;;;;;;;4969232;28;20108;-63
2022/01/06 13:52:54;;;;;;;8.57;3.60;;;;;;;;;;4974011;28;20605;-63
2022/01/06 13:55:21;;;;;;;6.43;2.35;;;;;;;;;;4970201;28;20046;-64
2022/01/06 13:57:48;;;;;;;7.43;2.33;;;;;;;;;;4968503;28;20074;-63
2022/01/06 14:00:16;;;;;;;9.23;2.58;;;;;;;;;;4969405;28;20147;-63
2022/01/06 14:02:44;;;;;;;4.82;3.00;;;;;;;;;;4974873;28;20056;-63
2022/01/06 14:05:12;;;;;;;7.30;2.72;;;;;;;;;;4968875;28;20042;-63
2022/01/06 14:07:39;;;;;;;7.45;2.88;;;;;;;;;;4967195;28;20058;-64
2022/01/06 14:10:08;;;;;;;4.95;2.75;;;;;;;;;;4972175;28;21811;-63
2022/01/06 14:12:34;;;;;;;6.63;2.72;;;;;;;;;;4968689;28;20074;-63
2022/01/06 14:15:01;;;;;;;5.97;3.13;;;;;;;;;;4970911;28;20090;-63
2022/01/06 14:17:29;;;;;;;8.65;3.20;;;;;;;;;;4967767;28;20110;-63
2022/01/06 14:19:55;;;;;;;5.68;3.33;;;;;;;;;;4971141;28;20053;-63
2022/01/06 14:22:24;;;;;;;8.38;2.65;;;;;;;;;;4976587;28;20133;-63
2022/01/06 14:24:51;;;;;;;7.70;2.70;;;;;;;;;;4973395;28;20047;-64
2022/01/06 14:27:19;;;;;;;9.02;3.60;;;;;;;;;;4975168;28;20142;-63
2022/01/06 14:29:46;;;;;;;10.00;3.67;;;;;;;;;;4974798;28;20142;-62
2022/01/06 14:32:12;;;;;;;6.75;2.75;;;;;;;;;;4978222;28;20134;-62
2022/01/06 14:34:39;;;;;;;8.73;3.28;;;;;;;;;;4977323;28;20117;-62
2022/01/06 14:37:05;;;;;;;9.98;3.38;;;;;;;;;;4969687;28;20071;-62
2022/01/06 14:39:33;;;;;;;10.90;3.47;;;;;;;;;;4969691;28;20559;-62
2022/01/06 14:41:59;;;;;;;9.27;3.42;;;;;;;;;;4971114;28;20066;-62
2022/01/06 14:44:27;;;;;;;8.38;3.38;;;;;;;;;;4962352;28;20150;-63
2022/01/06 14:46:54;;;;;;;9.40;4.40;;;;;;;;;;4966152;28;20127;-62
2022/01/06 14:49:22;;;;;;;7.75;3.28;;;;;;;;;;4964472;28;20134;-62
2022/01/06 14:51:49;;;;;;;11.63;4.00;;;;;;;;;;4969294;28;20118;-63